createdAt,value
2018-05-03T00:01:00.115Z,100732.39
2018-05-03T00:03:25.863Z,100730.45
2018-05-03T00:05:51.626Z,100732.24
2018-05-03T00:08:17.362Z,100728.94
2018-05-03T00:10:43.103Z,100729.00
2018-05-03T00:13:08.890Z,100721.81
2018-05-03T00:15:34.672Z,100720.50
2018-05-03T00:18:00.407Z,100717.55
2018-05-03T00:20:26.156Z,100707.66
2018-05-03T00:22:51.899Z,100708.28
2018-05-03T00:25:17.635Z,100709.65
2018-05-03T00:27:43.379Z,100706.49
2018-05-03T00:30:09.131Z,100710.55
2018-05-03T00:32:35.279Z,100715.41
2018-05-03T00:35:01.071Z,100710.84
2018-05-03T00:37:26.801Z,100722.77
2018-05-03T00:39:52.823Z,100719.19
2018-05-03T00:42:18.590Z,100723.18
2018-05-03T00:44:44.414Z,100723.33
2018-05-03T00:47:10.128Z,100722.97
2018-05-03T00:49:35.863Z,100722.23
2018-05-03T00:52:01.638Z,100714.47
2018-05-03T00:54:39.671Z,100717.75
2018-05-03T00:57:05.489Z,100709.77
2018-05-03T00:59:31.315Z,100708.30
2018-05-03T01:01:57.341Z,100706.00
2018-05-03T01:04:23.091Z,100705.94
2018-05-03T01:06:49.120Z,100711.66
2018-05-03T01:09:14.900Z,100722.77
2018-05-03T01:11:40.673Z,100713.73
2018-05-03T01:14:06.435Z,100721.66
2018-05-03T01:16:32.201Z,100717.87
2018-05-03T01:18:57.955Z,100713.30
2018-05-03T01:21:23.723Z,100717.71
2018-05-03T01:23:49.474Z,100714.31
2018-05-03T01:26:15.263Z,100716.52
2018-05-03T01:28:41.010Z,100717.70
2018-05-03T01:31:06.784Z,100712.66
2018-05-03T01:33:32.519Z,100708.99
2018-05-03T01:36:10.628Z,100717.33
2018-05-03T01:38:36.408Z,100711.93
2018-05-03T01:41:02.175Z,100714.70
2018-05-03T01:43:27.942Z,100714.06
2018-05-03T01:45:53.751Z,100723.44
2018-05-03T01:48:19.495Z,100721.64
2018-05-03T01:50:45.279Z,100721.48
2018-05-03T01:53:11.045Z,100727.59
2018-05-03T01:55:36.815Z,100730.83
2018-05-03T01:58:02.575Z,100728.83
2018-05-03T02:00:28.399Z,100727.94
2018-05-03T02:02:54.187Z,100731.51
2018-05-03T02:05:19.943Z,100737.58
2018-05-03T02:07:45.714Z,100734.97
2018-05-03T02:10:11.447Z,100734.33
2018-05-03T02:12:37.495Z,100733.91
2018-05-03T02:15:03.259Z,100736.47
2018-05-03T02:17:29.040Z,100729.05
2018-05-03T02:19:54.820Z,100731.05
2018-05-03T02:22:20.619Z,100731.69
2018-05-03T02:24:46.365Z,100720.39
2018-05-03T02:27:12.192Z,100729.58
2018-05-03T02:29:37.938Z,100732.11
2018-05-03T02:32:03.757Z,100725.78
2018-05-03T02:34:29.683Z,100732.21
2018-05-03T02:36:55.459Z,100734.72
2018-05-03T02:39:21.211Z,100737.77
2018-05-03T02:41:46.988Z,100750.11
2018-05-03T02:44:12.784Z,100749.41
2018-05-03T02:46:38.531Z,100742.85
2018-05-03T02:49:04.296Z,100744.05
2018-05-03T02:51:30.043Z,100752.88
2018-05-03T02:53:55.808Z,100746.52
2018-05-03T02:56:21.582Z,100740.59
2018-05-03T02:58:59.599Z,100743.27
2018-05-03T03:01:43.836Z,100748.31
2018-05-03T03:04:28.080Z,100754.40
2018-05-03T03:07:12.543Z,100752.45
2018-05-03T03:13:34.641Z,100781.20
2018-05-03T03:16:18.971Z,100782.09
2018-05-03T03:19:03.302Z,100784.36
2018-05-03T03:21:47.531Z,100786.14
2018-05-03T03:24:31.949Z,100787.66
2018-05-03T03:27:16.178Z,100797.36
2018-05-03T03:29:54.210Z,100798.78
2018-05-03T03:32:32.383Z,100804.92
2018-05-03T03:38:34.584Z,100796.78
2018-05-03T03:41:12.684Z,100801.47
2018-05-03T03:43:50.999Z,100802.66
2018-05-03T03:46:16.829Z,100797.47
2018-05-03T03:48:42.527Z,100807.55
2018-05-03T03:51:08.292Z,100808.86
2018-05-03T03:53:34.064Z,100808.74
2018-05-03T03:55:59.867Z,100806.33
2018-05-03T03:58:25.927Z,100818.88
2018-05-03T04:00:51.674Z,100811.84
2018-05-03T04:03:17.448Z,100822.88
2018-05-03T04:05:43.195Z,100824.02
2018-05-03T04:08:08.959Z,100828.17
2018-05-03T04:10:34.701Z,100825.03
2018-05-03T04:13:00.459Z,100830.02
2018-05-03T04:15:26.239Z,100829.39
2018-05-03T04:18:04.187Z,100832.86
2018-05-03T04:20:51.812Z,100834.68
2018-05-03T04:23:44.675Z,100839.09
2018-05-03T04:26:10.435Z,100845.66
2018-05-03T04:28:36.211Z,100848.34
2018-05-03T04:31:01.971Z,100849.66
2018-05-03T04:33:27.744Z,100856.52
2018-05-03T04:35:53.507Z,100857.41
2018-05-03T04:38:19.266Z,100865.56
2018-05-03T04:40:45.081Z,100869.86
2018-05-03T04:43:10.843Z,100866.12
2018-05-03T04:45:36.617Z,100867.16
2018-05-03T04:48:02.379Z,100869.51
2018-05-03T04:50:28.153Z,100866.19
2018-05-03T04:52:53.899Z,100877.84
2018-05-03T04:55:19.894Z,100880.48
2018-05-03T04:57:45.639Z,100885.19
2018-05-03T05:00:11.702Z,100888.56
2018-05-03T05:02:37.466Z,100893.34
2018-05-03T05:05:03.392Z,100899.97
2018-05-03T05:07:29.139Z,100899.42
2018-05-03T05:09:54.904Z,100905.84
2018-05-03T05:12:20.675Z,100906.74
2018-05-03T05:14:46.451Z,100906.07
2018-05-03T05:17:12.191Z,100918.11
2018-05-03T05:19:37.963Z,100924.47
2018-05-03T05:22:03.717Z,100932.05
2018-05-03T05:24:29.468Z,100937.38
2018-05-03T05:26:55.249Z,100932.92
2018-05-03T05:29:21.122Z,100937.97
2018-05-03T05:31:46.886Z,100943.44
2018-05-03T05:34:12.645Z,100951.66
2018-05-03T05:36:38.423Z,100962.02
2018-05-03T05:39:04.301Z,100965.84
2018-05-03T05:41:29.959Z,100970.81
2018-05-03T05:43:55.747Z,100972.59
2018-05-03T05:46:21.515Z,100976.29
2018-05-03T05:48:47.272Z,100970.35
2018-05-03T05:51:13.067Z,100972.63
2018-05-03T05:53:38.823Z,100978.44
2018-05-03T05:56:04.647Z,100980.72
2018-05-03T05:58:30.403Z,100975.19
2018-05-03T06:00:56.178Z,100984.17
2018-05-03T06:03:21.923Z,100979.81
2018-05-03T06:05:47.699Z,100990.47
2018-05-03T06:08:13.447Z,100997.46
2018-05-03T06:10:39.248Z,100990.95
2018-05-03T06:13:05.784Z,100999.05
2018-05-03T06:15:31.580Z,101007.00
2018-05-03T06:17:57.406Z,101015.30
2018-05-03T06:20:23.161Z,101022.29
2018-05-03T06:22:48.943Z,101011.70
2018-05-03T06:25:14.697Z,101011.98
2018-05-03T06:27:40.513Z,101019.17
2018-05-03T06:30:06.276Z,101018.55
2018-05-03T06:32:32.053Z,101024.16
2018-05-03T06:34:57.810Z,101027.67
2018-05-03T06:37:23.585Z,101033.08
2018-05-03T06:39:49.368Z,101039.09
2018-05-03T06:42:15.125Z,101042.27
2018-05-03T06:44:40.904Z,101045.45
2018-05-03T06:47:06.743Z,101056.09
2018-05-03T06:49:32.447Z,101052.02
2018-05-03T06:51:58.251Z,101056.37
2018-05-03T06:54:24.012Z,101061.84
2018-05-03T06:56:49.795Z,101068.13
2018-05-03T06:59:15.615Z,101074.80
2018-05-03T07:01:41.411Z,101078.73
2018-05-03T07:04:07.201Z,101083.50
2018-05-03T07:06:32.928Z,101082.97
2018-05-03T07:08:58.680Z,101079.55
2018-05-03T07:11:24.507Z,101089.75
2018-05-03T07:13:50.289Z,101095.50
2018-05-03T07:16:16.136Z,101103.02
2018-05-03T07:18:41.864Z,101102.95
2018-05-03T07:21:07.632Z,101111.14
2018-05-03T07:23:33.471Z,101119.13
2018-05-03T07:25:59.441Z,101132.14
2018-05-03T07:28:25.203Z,101136.05
2018-05-03T07:30:50.975Z,101139.25
2018-05-03T07:33:16.727Z,101144.25
2018-05-03T07:35:42.491Z,101138.63
2018-05-03T07:38:08.247Z,101158.09
2018-05-03T07:40:34.053Z,101158.98
2018-05-03T07:42:59.801Z,101160.92
2018-05-03T07:45:25.570Z,101173.27
2018-05-03T07:47:51.319Z,101172.55
2018-05-03T07:50:17.103Z,101175.47
2018-05-03T07:52:42.871Z,101178.48
2018-05-03T07:55:08.640Z,101178.02
2018-05-03T07:57:34.411Z,101189.23
2018-05-03T08:00:00.313Z,101196.53
2018-05-03T08:02:26.124Z,101195.72
2018-05-03T08:04:51.876Z,101210.39
2018-05-03T08:07:17.671Z,101199.28
2018-05-03T08:09:43.897Z,101207.89
2018-05-03T08:12:09.692Z,101214.02
2018-05-03T08:14:35.507Z,101218.30
2018-05-03T08:17:01.324Z,101221.27
2018-05-03T08:19:27.036Z,101224.35
2018-05-03T08:21:52.807Z,101238.35
2018-05-03T08:24:18.579Z,101236.00
2018-05-03T08:26:44.343Z,101230.95
2018-05-03T08:29:10.511Z,101235.17
2018-05-03T08:31:36.343Z,101243.71
2018-05-03T08:34:02.117Z,101249.06
2018-05-03T08:36:27.871Z,101253.89
2018-05-03T08:38:54.387Z,101253.75
2018-05-03T08:41:20.236Z,101261.23
2018-05-03T08:43:46.019Z,101257.84
2018-05-03T08:46:11.783Z,101268.58
2018-05-03T08:48:37.583Z,101277.06
2018-05-03T08:51:03.341Z,101272.97
2018-05-03T08:53:29.184Z,101264.94
2018-05-03T08:55:54.955Z,101276.81
2018-05-03T08:58:20.723Z,101281.01
2018-05-03T09:00:47.463Z,101284.75
2018-05-03T09:03:13.275Z,101282.05
2018-05-03T09:05:39.015Z,101284.50
2018-05-03T09:08:04.789Z,101292.09
2018-05-03T09:10:30.555Z,101293.51
2018-05-03T09:12:56.352Z,101288.05
2018-05-03T09:15:22.144Z,101302.63
2018-05-03T09:17:47.906Z,101305.41
2018-05-03T09:20:13.651Z,101311.58
2018-05-03T09:22:39.439Z,101308.44
2018-05-03T09:25:05.188Z,101306.61
2018-05-03T09:27:30.975Z,101311.11
2018-05-03T09:29:56.715Z,101319.73
2018-05-03T09:32:22.474Z,101317.81
2018-05-03T09:34:48.232Z,101313.94
2018-05-03T09:37:14.019Z,101326.80
2018-05-03T09:39:39.772Z,101322.50
2018-05-03T09:42:05.567Z,101333.58
2018-05-03T09:44:31.335Z,101338.90
2018-05-03T09:46:57.124Z,101336.02
2018-05-03T09:49:22.873Z,101343.44
2018-05-03T09:51:48.680Z,101337.59
2018-05-03T09:54:14.445Z,101340.77
2018-05-03T09:56:40.215Z,101343.77
2018-05-03T09:59:06.174Z,101345.16
2018-05-03T10:01:31.965Z,101341.91
2018-05-03T10:03:57.703Z,101355.89
2018-05-03T10:06:23.456Z,101359.93
2018-05-03T10:08:49.236Z,101373.95
2018-05-03T10:11:14.975Z,101365.93
2018-05-03T10:13:40.755Z,101376.36
2018-05-03T10:16:06.534Z,101373.69
2018-05-03T10:18:32.360Z,101375.27
2018-05-03T10:20:58.138Z,101367.77
2018-05-03T10:23:23.919Z,101373.82
2018-05-03T10:25:49.674Z,101372.55
2018-05-03T10:28:15.476Z,101381.49
2018-05-03T10:30:41.232Z,101384.98
2018-05-03T10:33:07.036Z,101388.23
2018-05-03T10:35:32.812Z,101374.47
2018-05-03T10:37:58.566Z,101379.77
2018-05-03T10:40:24.362Z,101376.00
2018-05-03T10:42:50.134Z,101381.39
2018-05-03T10:45:15.903Z,101381.77
2018-05-03T10:47:41.651Z,101383.66
2018-05-03T10:50:07.426Z,101386.89
2018-05-03T10:52:33.168Z,101396.17
2018-05-03T10:54:58.915Z,101388.47
2018-05-03T10:57:24.706Z,101391.64
2018-05-03T10:59:50.463Z,101398.61
2018-05-03T11:02:16.295Z,101400.98
2018-05-03T11:04:42.073Z,101410.02
2018-05-03T11:07:07.848Z,101405.66
2018-05-03T11:09:33.627Z,101403.92
2018-05-03T11:11:59.403Z,101415.42
2018-05-03T11:14:25.183Z,101414.27
2018-05-03T11:16:50.919Z,101420.25
2018-05-03T11:19:16.707Z,101418.74
2018-05-03T11:21:42.459Z,101416.48
2018-05-03T11:24:08.227Z,101420.44
2018-05-03T11:26:33.988Z,101428.22
2018-05-03T11:28:59.875Z,101434.48
2018-05-03T11:31:25.670Z,101431.14
2018-05-03T11:33:51.423Z,101430.98
2018-05-03T11:36:17.168Z,101427.75
2018-05-03T11:38:42.986Z,101432.41
2018-05-03T11:41:08.760Z,101426.53
2018-05-03T11:43:34.538Z,101422.42
2018-05-03T11:46:00.295Z,101427.52
2018-05-03T11:48:26.075Z,101424.70
2018-05-03T11:50:51.823Z,101438.89
2018-05-03T11:53:17.595Z,101432.11
2018-05-03T11:55:43.382Z,101440.70
2018-05-03T11:58:09.455Z,101443.69
2018-05-03T12:00:35.612Z,101437.92
2018-05-03T12:03:01.405Z,101438.94
2018-05-03T12:05:27.149Z,101432.41
2018-05-03T12:07:52.968Z,101442.33
2018-05-03T12:10:18.719Z,101449.07
2018-05-03T12:12:44.475Z,101448.87
2018-05-03T12:15:10.235Z,101442.31
2018-05-03T12:17:36.000Z,101453.41
2018-05-03T12:20:01.760Z,101464.44
2018-05-03T12:22:27.512Z,101458.28
2018-05-03T12:24:53.312Z,101461.07
2018-05-03T12:27:19.088Z,101465.01
2018-05-03T12:29:44.848Z,101463.08
2018-05-03T12:32:10.611Z,101452.56
2018-05-03T12:34:36.372Z,101459.06
2018-05-03T12:37:02.174Z,101450.63
2018-05-03T12:39:27.940Z,101457.20
2018-05-03T12:41:53.696Z,101460.20
2018-05-03T12:44:19.495Z,101460.33
2018-05-03T12:46:45.261Z,101458.50
2018-05-03T12:49:11.047Z,101464.66
2018-05-03T12:51:36.792Z,101471.66
2018-05-03T12:54:02.601Z,101480.14
2018-05-03T12:56:28.487Z,101467.53
2018-05-03T12:58:54.283Z,101464.63
2018-05-03T13:01:20.032Z,101468.20
2018-05-03T13:03:45.795Z,101470.61
2018-05-03T13:06:11.569Z,101472.88
2018-05-03T13:08:37.388Z,101473.05
2018-05-03T13:11:03.146Z,101474.05
2018-05-03T13:13:28.945Z,101467.70
2018-05-03T13:15:54.703Z,101466.60
2018-05-03T13:18:20.471Z,101467.77
2018-05-03T13:20:46.419Z,101468.69
2018-05-03T13:23:12.167Z,101467.61
2018-05-03T13:25:37.974Z,101463.20
2018-05-03T13:28:03.762Z,101463.60
2018-05-03T13:30:29.503Z,101461.22
2018-05-03T13:32:55.251Z,101467.37
2018-05-03T13:35:21.050Z,101464.33
2018-05-03T13:37:46.819Z,101463.73
2018-05-03T13:40:12.584Z,101463.09
2018-05-03T13:42:38.378Z,101461.93
2018-05-03T13:45:04.184Z,101467.00
2018-05-03T13:47:30.039Z,101469.84
2018-05-03T13:49:55.790Z,101473.91
2018-05-03T13:52:21.546Z,101477.91
2018-05-03T13:54:47.325Z,101475.99
2018-05-03T13:57:13.090Z,101477.41
2018-05-03T13:59:38.912Z,101481.55
2018-05-03T14:02:04.703Z,101483.36
2018-05-03T14:04:30.459Z,101478.51
2018-05-03T14:06:56.233Z,101486.05
2018-05-03T14:09:21.989Z,101482.46
2018-05-03T14:11:47.795Z,101479.73
2018-05-03T14:14:13.572Z,101487.25
2018-05-03T14:16:39.336Z,101480.22
2018-05-03T14:19:05.100Z,101484.75
2018-05-03T14:21:30.891Z,101488.42
2018-05-03T14:23:56.734Z,101493.12
2018-05-03T14:26:22.462Z,101493.95
2018-05-03T14:28:48.232Z,101491.47
2018-05-03T14:31:14.039Z,101492.49
2018-05-03T14:33:39.804Z,101495.91
2018-05-03T14:36:05.568Z,101499.72
2018-05-03T14:38:31.340Z,101495.22
2018-05-03T14:40:57.120Z,101500.64
2018-05-03T14:43:22.864Z,101499.78
2018-05-03T14:45:48.665Z,101504.77
2018-05-03T14:48:14.419Z,101499.09
2018-05-03T14:50:40.230Z,101506.95
2018-05-03T14:53:05.993Z,101508.34
2018-05-03T14:55:31.772Z,101506.43
2018-05-03T14:57:57.556Z,101510.70
2018-05-03T15:00:23.500Z,101507.11
2018-05-03T15:02:49.255Z,101509.55
2018-05-03T15:05:15.009Z,101506.61
2018-05-03T15:07:40.794Z,101511.80
2018-05-03T15:10:06.601Z,101515.19
2018-05-03T15:12:32.379Z,101523.91
2018-05-03T15:14:58.145Z,101531.56
2018-05-03T15:17:23.901Z,101529.94
2018-05-03T15:19:49.679Z,101534.52
2018-05-03T15:22:15.451Z,101539.63
2018-05-03T15:24:41.215Z,101538.54
2018-05-03T15:27:06.980Z,101543.02
2018-05-03T15:29:32.723Z,101547.47
2018-05-03T15:31:58.492Z,101544.34
2018-05-03T15:34:24.263Z,101541.50
2018-05-03T15:36:50.028Z,101539.28
2018-05-03T15:39:15.834Z,101545.69
2018-05-03T15:41:41.576Z,101554.70
2018-05-03T15:44:07.319Z,101551.95
2018-05-03T15:46:33.092Z,101556.14
2018-05-03T15:48:58.836Z,101550.09
2018-05-03T15:51:24.626Z,101556.39
2018-05-03T15:53:50.376Z,101556.89
2018-05-03T15:56:16.159Z,101553.14
2018-05-03T15:58:41.912Z,101557.48
2018-05-03T16:01:07.695Z,101559.95
2018-05-03T16:03:33.724Z,101564.94
2018-05-03T16:05:59.495Z,101564.03
2018-05-03T16:08:25.259Z,101545.47
2018-05-03T16:10:51.020Z,101560.23
2018-05-03T16:13:16.788Z,101575.34
2018-05-03T16:15:42.543Z,101578.44
2018-05-03T16:18:08.332Z,101581.59
2018-05-03T16:20:34.104Z,101578.61
2018-05-03T16:22:59.892Z,101575.14
2018-05-03T16:25:25.635Z,101578.77
2018-05-03T16:27:51.406Z,101587.16
2018-05-03T16:30:17.180Z,101594.69
2018-05-03T16:32:43.164Z,101585.14
2018-05-03T16:35:08.949Z,101582.27
2018-05-03T16:37:34.717Z,101592.81
2018-05-03T16:40:00.529Z,101592.10
2018-05-03T16:42:26.284Z,101584.01
2018-05-03T16:44:52.077Z,101596.81
2018-05-03T16:47:17.839Z,101595.13
2018-05-03T16:49:43.581Z,101590.91
2018-05-03T16:52:09.375Z,101595.26
2018-05-03T16:54:35.155Z,101598.91
2018-05-03T16:57:00.998Z,101600.52
2018-05-03T16:59:26.780Z,101606.52
2018-05-03T17:01:52.493Z,101605.28
2018-05-03T17:04:18.245Z,101603.63
2018-05-03T17:06:44.046Z,101607.22
2018-05-03T17:09:09.799Z,101607.06
2018-05-03T17:11:35.575Z,101603.61
2018-05-03T17:14:01.337Z,101606.89
2018-05-03T17:16:27.103Z,101613.34
2018-05-03T17:18:52.908Z,101612.38
2018-05-03T17:21:18.656Z,101621.05
2018-05-03T17:23:44.414Z,101622.44
2018-05-03T17:26:10.177Z,101621.95
2018-05-03T17:28:35.965Z,101632.44
2018-05-03T17:31:01.725Z,101623.81
2018-05-03T17:33:27.495Z,101629.92
2018-05-03T17:35:53.245Z,101637.34
2018-05-03T17:38:19.024Z,101647.72
2018-05-03T17:40:44.796Z,101649.11
2018-05-03T17:43:10.614Z,101648.42
2018-05-03T17:45:36.376Z,101652.64
2018-05-03T17:48:02.146Z,101659.59
2018-05-03T17:50:27.923Z,101665.72
2018-05-03T17:52:53.723Z,101670.27
2018-05-03T17:55:19.471Z,101666.72
2018-05-03T17:57:45.464Z,101669.69
2018-05-03T18:00:11.221Z,101672.61
2018-05-03T18:02:37.025Z,101677.27
2018-05-03T18:05:02.808Z,101688.13
2018-05-03T18:07:28.598Z,101688.63
2018-05-03T18:09:54.379Z,101688.27
2018-05-03T18:12:20.136Z,101692.19
2018-05-03T18:14:45.923Z,101689.52
2018-05-03T18:17:11.701Z,101694.52
2018-05-03T18:19:37.487Z,101698.00
2018-05-03T18:22:03.232Z,101702.50
2018-05-03T18:24:29.119Z,101703.63
2018-05-03T18:26:54.855Z,101715.28
2018-05-03T18:29:20.712Z,101712.94
2018-05-03T18:31:46.535Z,101722.16
2018-05-03T18:34:12.346Z,101730.95
2018-05-03T18:36:38.105Z,101729.94
2018-05-03T18:39:03.887Z,101734.17
2018-05-03T18:41:29.651Z,101739.86
2018-05-03T18:43:55.573Z,101739.16
2018-05-03T18:46:21.257Z,101747.91
2018-05-03T18:48:47.023Z,101751.83
2018-05-03T18:51:12.775Z,101748.84
2018-05-03T18:53:38.560Z,101762.53
2018-05-03T18:56:04.356Z,101763.09
2018-05-03T18:58:30.180Z,101770.87
2018-05-03T19:00:55.928Z,101770.73
2018-05-03T19:03:21.691Z,101771.23
2018-05-03T19:05:47.584Z,101775.98
2018-05-03T19:08:13.551Z,101775.72
2018-05-03T19:10:39.336Z,101780.57
2018-05-03T19:13:05.110Z,101789.32
2018-05-03T19:15:30.883Z,101789.83
2018-05-03T19:17:56.648Z,101789.88
2018-05-03T19:20:22.820Z,101788.80
2018-05-03T19:22:48.644Z,101804.88
2018-05-03T19:25:14.410Z,101803.27
2018-05-03T19:27:40.167Z,101806.03
2018-05-03T19:30:05.935Z,101810.88
2018-05-03T19:32:31.685Z,101808.89
2018-05-03T19:34:57.455Z,101810.58
2018-05-03T19:37:23.208Z,101814.36
2018-05-03T19:39:49.247Z,101814.87
2018-05-03T19:42:15.031Z,101816.06
2018-05-03T19:44:40.799Z,101812.45
2018-05-03T19:50:08.455Z,101813.98
2018-05-03T19:52:34.207Z,101814.39
2018-05-03T19:54:59.972Z,101812.20
2018-05-03T19:57:25.721Z,101826.08
2018-05-03T19:59:51.493Z,101819.11
2018-05-03T20:02:17.239Z,101827.63
2018-05-03T20:04:43.015Z,101823.47
2018-05-03T20:07:08.761Z,101829.63
2018-05-03T20:09:34.619Z,101838.74
2018-05-03T20:12:00.379Z,101840.78
2018-05-03T20:14:26.155Z,101844.52
2018-05-03T20:16:51.896Z,101841.61
2018-05-03T20:19:17.659Z,101844.16
2018-05-03T20:21:43.435Z,101847.77
2018-05-03T20:27:04.056Z,101855.07
2018-05-03T20:29:29.825Z,101847.41
2018-05-03T20:31:55.708Z,101845.84
2018-05-03T20:34:21.484Z,101845.21
2018-05-03T20:36:47.315Z,101838.27
2018-05-03T20:39:13.071Z,101843.36
2018-05-03T20:41:39.132Z,101849.23
2018-05-03T20:44:04.871Z,101846.86
2018-05-03T20:46:30.652Z,101843.52
2018-05-03T20:48:56.388Z,101851.59
2018-05-03T20:51:22.172Z,101854.50
2018-05-03T20:53:47.934Z,101861.23
2018-05-03T20:56:13.708Z,101853.75
2018-05-03T20:58:39.487Z,101858.39
2018-05-03T21:01:05.292Z,101856.81
2018-05-03T21:03:31.055Z,101858.11
2018-05-03T21:05:56.850Z,101860.93
2018-05-03T21:08:22.595Z,101859.56
2018-05-03T21:10:48.387Z,101863.23
2018-05-03T21:13:14.155Z,101869.47
2018-05-03T21:15:39.923Z,101877.14
2018-05-03T21:18:05.771Z,101870.48
2018-05-03T21:20:31.544Z,101875.73
2018-05-03T21:22:57.342Z,101880.75
2018-05-03T21:25:23.079Z,101884.22
2018-05-03T21:27:48.847Z,101878.44
2018-05-03T21:30:14.576Z,101884.10
2018-05-03T21:32:40.387Z,101890.08
2018-05-03T21:35:06.136Z,101884.98
2018-05-03T21:37:31.913Z,101883.53
2018-05-03T21:39:57.655Z,101888.24
2018-05-03T21:42:24.303Z,101895.46
2018-05-03T21:44:50.061Z,101896.89
2018-05-03T21:47:15.831Z,101897.40
2018-05-03T21:49:41.619Z,101894.28
2018-05-03T21:52:07.400Z,101894.59
2018-05-03T21:54:33.169Z,101909.89
2018-05-03T21:56:59.073Z,101907.16
2018-05-03T21:59:24.820Z,101906.62
2018-05-03T22:01:50.839Z,101901.11
2018-05-03T22:04:16.643Z,101900.19
2018-05-03T22:06:42.446Z,101898.61
2018-05-03T22:09:08.204Z,101895.11
2018-05-03T22:11:33.960Z,101901.23
2018-05-03T22:13:59.760Z,101899.61
2018-05-03T22:16:25.487Z,101903.31
2018-05-03T22:18:51.254Z,101901.80
2018-05-03T22:21:17.408Z,101905.50
2018-05-03T22:23:43.186Z,101896.29
2018-05-03T22:26:08.963Z,101907.03
2018-05-03T22:28:34.746Z,101909.03
2018-05-03T22:31:00.488Z,101914.53
2018-05-03T22:33:26.261Z,101908.36
2018-05-03T22:35:52.006Z,101904.70
2018-05-03T22:38:17.778Z,101915.37
2018-05-03T22:40:43.549Z,101915.28
2018-05-03T22:43:09.316Z,101913.31
2018-05-03T22:45:35.055Z,101916.19
2018-05-03T22:48:00.815Z,101911.36
2018-05-03T22:50:26.566Z,101907.42
2018-05-03T22:52:52.336Z,101906.61
2018-05-03T22:55:18.096Z,101903.12
2018-05-03T22:57:44.172Z,101911.35
2018-05-03T23:00:09.943Z,101913.02
2018-05-03T23:02:35.706Z,101911.85
2018-05-03T23:05:01.493Z,101911.95
2018-05-03T23:07:27.239Z,101914.30
2018-05-03T23:09:52.998Z,101914.86
2018-05-03T23:12:18.844Z,101919.74
2018-05-03T23:14:44.534Z,101921.30
2018-05-03T23:17:10.315Z,101923.17
2018-05-03T23:19:36.130Z,101925.41
2018-05-03T23:22:01.893Z,101924.23
2018-05-03T23:24:27.703Z,101927.84
2018-05-03T23:26:53.466Z,101924.66
2018-05-03T23:29:19.218Z,101926.16
2018-05-03T23:31:44.967Z,101926.72
2018-05-03T23:34:10.723Z,101924.42
2018-05-03T23:36:36.463Z,101927.92
2018-05-03T23:39:02.275Z,101927.98
2018-05-03T23:41:28.007Z,101931.09
2018-05-03T23:43:53.786Z,101938.69
2018-05-03T23:46:19.552Z,101929.40
2018-05-03T23:48:45.311Z,101933.78
2018-05-03T23:51:11.055Z,101933.92
2018-05-03T23:53:36.844Z,101932.75
2018-05-03T23:56:02.670Z,101933.34
2018-05-03T23:58:28.462Z,101933.34
